createdAt,value
2023-03-20T00:01:26.895Z,1.70
2023-03-20T00:03:53.591Z,1.88
2023-03-20T00:06:23.292Z,1.60
2023-03-20T00:08:53.057Z,1.40
2023-03-20T00:11:36.447Z,1.63
2023-03-20T00:14:06.022Z,1.30
2023-03-20T00:16:38.004Z,1.25
2023-03-20T00:19:06.591Z,0.90
2023-03-20T00:21:35.153Z,1.08
2023-03-20T00:24:02.135Z,0.90
2023-03-20T00:26:33.681Z,0.93
2023-03-20T00:29:01.700Z,0.70
2023-03-20T00:31:31.451Z,1.10
2023-03-20T00:36:30.690Z,1.23
2023-03-20T00:38:59.410Z,1.08
2023-03-20T00:41:28.568Z,0.93
2023-03-20T00:44:01.664Z,1.30
2023-03-20T00:46:29.367Z,0.40
2023-03-20T00:48:56.560Z,0.55
2023-03-20T00:51:23.484Z,0.30
2023-03-20T00:53:53.543Z,0.40
2023-03-20T00:56:35.725Z,0.32
2023-03-20T00:59:04.250Z,0.50
2023-03-20T01:01:32.275Z,0.22
2023-03-20T01:04:00.366Z,0.50
2023-03-20T01:06:28.937Z,0.05
2023-03-20T01:08:57.781Z,0.20
2023-03-20T01:13:52.507Z,0.20
2023-03-20T01:16:28.312Z,0.35
2023-03-20T01:18:55.834Z,0.28
2023-03-20T01:21:22.608Z,0.20
2023-03-20T01:23:50.016Z,0.10
2023-03-20T01:26:36.871Z,0.10
2023-03-20T01:29:05.571Z,0.40
2023-03-20T01:31:33.602Z,0.25
2023-03-20T01:34:00.656Z,0.22
2023-03-20T01:36:27.847Z,0.28
2023-03-20T01:38:57.391Z,0.25
2023-03-20T01:41:26.440Z,0.20
2023-03-20T01:43:53.527Z,0.23
2023-03-20T01:46:26.536Z,0.20
2023-03-20T01:49:01.470Z,0.20
2023-03-20T01:51:33.093Z,0.32
2023-03-20T01:54:37.557Z,0.20
2023-03-20T01:57:28.429Z,0.30
2023-03-20T02:00:26.758Z,0.35
2023-03-20T02:02:56.744Z,0.57
2023-03-20T02:05:51.151Z,0.45
2023-03-20T02:08:33.378Z,1.02
2023-03-20T02:11:05.286Z,0.82
2023-03-20T02:13:35.639Z,1.10
2023-03-20T02:16:17.786Z,0.50
2023-03-20T02:19:01.459Z,0.28
2023-03-20T02:21:59.869Z,0.50
2023-03-20T02:24:52.839Z,0.30
2023-03-20T02:27:49.127Z,0.35
2023-03-20T02:30:39.367Z,0.43
2023-03-20T02:33:44.968Z,0.10
2023-03-20T02:36:51.573Z,0.20
2023-03-20T02:39:32.986Z,0.68
2023-03-20T02:42:19.133Z,0.43
2023-03-20T02:45:16.417Z,0.50
2023-03-20T02:47:55.103Z,0.60
2023-03-20T02:50:41.350Z,0.90
2023-03-20T02:53:42.822Z,0.40
2023-03-20T02:56:28.648Z,0.88
2023-03-20T02:59:10.647Z,0.70
2023-03-20T03:01:44.331Z,0.40
2023-03-20T03:04:18.512Z,0.75
2023-03-20T03:06:50.431Z,1.13
2023-03-20T03:09:29.065Z,1.23
2023-03-20T03:12:04.161Z,1.08
2023-03-20T03:14:46.173Z,1.98
2023-03-20T03:17:18.922Z,1.85
2023-03-20T03:19:50.588Z,2.50
2023-03-20T03:22:18.828Z,3.00
2023-03-20T03:24:52.018Z,2.83
2023-03-20T03:27:49.030Z,4.03
2023-03-20T03:30:22.996Z,5.15
2023-03-20T03:33:03.254Z,4.65
2023-03-20T03:35:34.829Z,3.88
2023-03-20T03:38:12.488Z,2.97
2023-03-20T03:41:03.984Z,3.42
2023-03-20T03:43:37.190Z,2.90
2023-03-20T03:46:12.719Z,2.95
2023-03-20T03:48:46.459Z,2.33
2023-03-20T03:51:18.174Z,2.78
2023-03-20T03:54:10.549Z,3.75
2023-03-20T03:56:40.581Z,4.28
2023-03-20T03:59:14.096Z,4.55
2023-03-20T04:01:44.803Z,7.05
2023-03-20T04:04:20.487Z,7.15
2023-03-20T04:06:48.567Z,7.90
2023-03-20T04:09:15.811Z,8.88
2023-03-20T04:11:51.926Z,8.40
2023-03-20T04:14:19.637Z,10.13
2023-03-20T04:16:46.936Z,10.32
2023-03-20T04:19:14.281Z,8.80
2023-03-20T04:21:46.017Z,10.65
2023-03-20T04:24:13.027Z,10.77
2023-03-20T04:26:40.969Z,8.98
2023-03-20T04:29:09.051Z,8.77
2023-03-20T04:31:59.054Z,9.68
2023-03-20T04:34:56.093Z,8.60
2023-03-20T04:37:30.992Z,7.30
2023-03-20T04:40:06.387Z,7.22
2023-03-20T04:42:34.182Z,8.07
2023-03-20T04:45:10.640Z,8.52
2023-03-20T04:47:40.109Z,8.20
2023-03-20T04:50:08.569Z,7.03
2023-03-20T04:52:37.552Z,6.53
2023-03-20T04:55:09.161Z,5.13
2023-03-20T04:57:42.091Z,4.68
2023-03-20T05:00:11.984Z,4.75
2023-03-20T05:02:39.293Z,4.55
2023-03-20T05:05:07.024Z,3.72
2023-03-20T05:07:42.649Z,3.40
2023-03-20T05:10:17.756Z,4.13
2023-03-20T05:13:00.633Z,3.97
2023-03-20T05:18:57.203Z,4.95
2023-03-20T05:21:43.457Z,4.70
2023-03-20T05:24:16.674Z,5.57
2023-03-20T05:27:09.069Z,4.97
2023-03-20T05:29:59.778Z,4.40
2023-03-20T05:32:51.258Z,4.20
2023-03-20T05:35:36.978Z,4.70
2023-03-20T05:38:28.013Z,4.22
2023-03-20T05:41:27.117Z,4.28
2023-03-20T05:44:23.064Z,3.30
2023-03-20T05:47:11.601Z,4.40
2023-03-20T05:50:01.821Z,4.65
2023-03-20T05:52:37.189Z,6.55
2023-03-20T05:55:19.008Z,4.32
2023-03-20T05:58:06.419Z,3.88
2023-03-20T06:01:03.376Z,4.53
2023-03-20T06:03:49.802Z,4.40
2023-03-20T06:06:28.096Z,4.57
2023-03-20T06:08:55.610Z,4.45
2023-03-20T06:11:23.103Z,4.53
2023-03-20T06:13:51.393Z,3.65
2023-03-20T06:16:19.356Z,4.35
2023-03-20T06:18:49.603Z,4.95
2023-03-20T06:21:17.743Z,4.70
2023-03-20T06:23:44.963Z,4.00
2023-03-20T06:26:12.268Z,4.40
2023-03-20T06:28:56.920Z,5.20
2023-03-20T06:31:24.520Z,5.57
2023-03-20T06:33:56.045Z,5.85
2023-03-20T06:36:24.111Z,5.93
2023-03-20T06:38:57.600Z,5.78
2023-03-20T06:41:34.622Z,6.35
2023-03-20T06:44:06.316Z,5.10
2023-03-20T06:46:53.678Z,8.88
2023-03-20T06:49:21.101Z,6.25
2023-03-20T06:51:48.767Z,6.88
2023-03-20T06:54:23.830Z,6.53
2023-03-20T06:56:52.514Z,5.72
2023-03-20T06:59:28.561Z,6.00
2023-03-20T07:01:58.796Z,6.90
2023-03-20T07:04:28.228Z,6.57
2023-03-20T07:06:59.753Z,6.68
2023-03-20T07:09:27.240Z,6.97
2023-03-20T07:11:54.824Z,5.93
2023-03-20T07:14:23.883Z,6.88
2023-03-20T07:16:56.638Z,6.75
2023-03-20T07:19:24.772Z,6.72
2023-03-20T07:22:01.951Z,7.32
2023-03-20T07:24:35.366Z,6.40
2023-03-20T07:27:02.853Z,6.67
2023-03-20T07:29:31.686Z,6.55
2023-03-20T07:32:01.307Z,7.13
2023-03-20T07:34:35.881Z,7.28
2023-03-20T07:37:04.048Z,7.95
2023-03-20T07:39:32.785Z,7.40
2023-03-20T07:42:23.273Z,7.57
2023-03-20T07:44:59.122Z,6.55
2023-03-20T07:47:26.333Z,6.95
2023-03-20T07:49:53.911Z,7.45
2023-03-20T07:52:20.981Z,7.50
2023-03-20T07:54:48.159Z,7.00
2023-03-20T07:57:15.608Z,7.18
2023-03-20T07:59:45.862Z,6.70
2023-03-20T08:02:18.276Z,7.40
2023-03-20T08:04:46.749Z,7.93
2023-03-20T08:07:13.735Z,7.47
2023-03-20T08:09:41.935Z,7.90
2023-03-20T08:12:10.298Z,8.35
2023-03-20T08:14:38.792Z,8.27
2023-03-20T08:17:15.015Z,9.00
2023-03-20T08:19:43.186Z,8.40
2023-03-20T08:22:10.184Z,8.80
2023-03-20T08:24:37.771Z,9.60
2023-03-20T08:27:06.905Z,9.50
2023-03-20T08:29:38.259Z,8.85
2023-03-20T08:32:06.412Z,8.70
2023-03-20T08:34:34.413Z,10.23
2023-03-20T08:37:04.228Z,8.75
2023-03-20T08:39:33.473Z,9.10
2023-03-20T08:42:01.823Z,14.52
2023-03-20T08:44:29.488Z,9.45
2023-03-20T08:46:59.692Z,10.10
2023-03-20T08:49:28.004Z,9.55
2023-03-20T08:51:56.307Z,9.52
2023-03-20T08:54:23.922Z,9.18
2023-03-20T08:56:51.936Z,9.50
2023-03-20T08:59:20.115Z,9.88
2023-03-20T09:01:50.198Z,10.13
2023-03-20T09:04:19.019Z,10.30
2023-03-20T09:06:49.451Z,10.15
2023-03-20T09:09:19.782Z,9.93
2023-03-20T09:11:48.705Z,9.27
2023-03-20T09:14:19.070Z,8.83
2023-03-20T09:16:47.233Z,8.45
2023-03-20T09:19:15.016Z,8.13
2023-03-20T09:21:42.275Z,7.47
2023-03-20T09:24:09.764Z,7.63
2023-03-20T09:26:36.950Z,7.53
2023-03-20T09:29:05.022Z,7.57
2023-03-20T09:31:32.278Z,7.80
2023-03-20T09:33:59.744Z,8.18
2023-03-20T09:36:27.087Z,7.78
2023-03-20T09:38:57.487Z,8.60
2023-03-20T09:41:28.382Z,7.13
2023-03-20T09:44:18.993Z,7.15
2023-03-20T09:47:08.720Z,6.63
2023-03-20T09:50:09.588Z,6.22
2023-03-20T09:52:52.604Z,6.82
2023-03-20T09:55:25.711Z,7.22
2023-03-20T09:57:58.255Z,6.32
2023-03-20T10:00:29.383Z,6.65
2023-03-20T10:03:05.146Z,7.15
2023-03-20T10:05:39.367Z,6.63
2023-03-20T10:08:14.410Z,6.75
2023-03-20T10:10:51.918Z,7.40
2023-03-20T10:13:39.957Z,6.07
2023-03-20T10:16:35.597Z,5.90
2023-03-20T10:19:27.496Z,7.25
2023-03-20T10:22:14.294Z,7.20
2023-03-20T10:24:49.820Z,7.20
2023-03-20T10:28:04.422Z,7.18
2023-03-20T10:30:55.106Z,7.93
2023-03-20T10:33:48.077Z,6.32
2023-03-20T10:36:46.321Z,7.45
2023-03-20T10:39:50.512Z,6.25
2023-03-20T10:42:25.402Z,7.18
2023-03-20T10:44:59.369Z,9.07
2023-03-20T10:47:30.541Z,8.23
2023-03-20T10:50:07.492Z,7.88
2023-03-20T10:52:39.763Z,7.03
2023-03-20T10:55:18.589Z,7.22
2023-03-20T10:57:51.909Z,7.60
2023-03-20T11:00:22.776Z,8.60
2023-03-20T11:02:49.932Z,8.13
2023-03-20T11:05:30.772Z,8.25
2023-03-20T11:08:12.994Z,8.60
2023-03-20T11:10:42.145Z,7.68
2023-03-20T11:13:38.821Z,7.68
2023-03-20T11:16:16.372Z,7.25
2023-03-20T11:18:43.786Z,8.15
2023-03-20T11:21:26.140Z,7.68
2023-03-20T11:23:54.284Z,7.00
2023-03-20T11:26:32.068Z,6.25
2023-03-20T11:29:00.757Z,6.70
2023-03-20T11:31:41.466Z,5.75
2023-03-20T11:34:14.311Z,6.30
2023-03-20T11:37:08.590Z,5.30
2023-03-20T11:39:53.009Z,5.30
2023-03-20T11:42:26.584Z,5.10
2023-03-20T11:45:17.029Z,4.88
2023-03-20T11:47:49.114Z,5.22
2023-03-20T11:50:37.671Z,5.35
2023-03-20T11:53:26.403Z,5.20
2023-03-20T11:56:11.011Z,13.05
2023-03-20T11:59:02.562Z,3.70
2023-03-20T12:01:40.856Z,3.35
2023-03-20T12:04:13.640Z,3.42
2023-03-20T12:06:43.504Z,3.67
2023-03-20T12:09:42.665Z,3.20
2023-03-20T12:12:16.223Z,3.92
2023-03-20T12:14:53.539Z,2.78
2023-03-20T12:17:43.074Z,3.75
2023-03-20T12:20:19.902Z,4.03
2023-03-20T12:23:00.944Z,3.53
2023-03-20T12:25:35.989Z,3.60
2023-03-20T12:28:14.726Z,3.05
2023-03-20T12:30:55.341Z,3.87
2023-03-20T12:33:49.372Z,2.55
2023-03-20T12:36:24.220Z,2.28
2023-03-20T12:38:51.203Z,2.40
2023-03-20T12:41:40.364Z,2.40
2023-03-20T12:44:21.973Z,2.90
2023-03-20T12:47:00.374Z,3.08
2023-03-20T12:49:56.380Z,2.70
2023-03-20T12:53:04.017Z,2.30
2023-03-20T12:56:13.985Z,2.25
2023-03-20T12:58:44.092Z,2.28
2023-03-20T13:01:31.934Z,2.05
2023-03-20T13:04:28.421Z,2.35
2023-03-20T13:07:00.136Z,2.08
2023-03-20T13:10:02.413Z,3.00
2023-03-20T13:12:38.025Z,3.03
2023-03-20T13:15:32.611Z,2.17
2023-03-20T13:18:08.668Z,1.85
2023-03-20T13:20:39.079Z,2.05
2023-03-20T13:23:27.500Z,2.42
2023-03-20T13:26:32.640Z,2.55
2023-03-20T13:29:08.640Z,2.60
2023-03-20T13:32:06.085Z,2.15
2023-03-20T13:35:05.905Z,1.73
2023-03-20T13:37:41.665Z,1.23
2023-03-20T13:40:44.062Z,1.00
2023-03-20T13:43:43.751Z,1.35
2023-03-20T13:46:46.324Z,1.63
2023-03-20T13:49:36.490Z,1.50
2023-03-20T13:52:16.752Z,1.15
2023-03-20T13:54:53.989Z,1.05
2023-03-20T13:57:38.602Z,1.20
2023-03-20T14:00:18.325Z,0.75
2023-03-20T14:05:41.129Z,0.45
2023-03-20T14:08:33.556Z,0.63
2023-03-20T14:11:06.904Z,0.60
2023-03-20T14:13:35.358Z,0.50
2023-03-20T14:16:07.818Z,0.75
2023-03-20T14:18:36.635Z,1.38
2023-03-20T14:21:15.545Z,0.80
2023-03-20T14:23:47.107Z,0.40
2023-03-20T14:26:23.360Z,1.70
2023-03-20T14:28:58.086Z,0.40
2023-03-20T14:31:26.649Z,0.82
2023-03-20T14:33:59.717Z,0.38
2023-03-20T14:36:31.718Z,0.70
2023-03-20T14:39:19.596Z,0.60
2023-03-20T14:42:26.161Z,0.30
2023-03-20T14:44:56.351Z,0.50
2023-03-20T14:47:44.495Z,0.50
2023-03-20T14:50:18.883Z,0.60
2023-03-20T14:53:11.295Z,0.55
2023-03-20T14:55:56.245Z,0.40
2023-03-20T14:58:41.633Z,0.57
2023-03-20T15:01:19.509Z,0.63
2023-03-20T15:04:59.394Z,0.57
2023-03-20T15:07:39.446Z,0.55
2023-03-20T15:10:07.582Z,0.40
2023-03-20T15:12:37.424Z,0.82
2023-03-20T15:15:26.270Z,0.60
2023-03-20T15:17:53.491Z,1.50
2023-03-20T15:20:26.507Z,0.70
2023-03-20T15:23:01.600Z,0.63
2023-03-20T15:25:44.078Z,1.08
2023-03-20T15:28:19.447Z,0.90
2023-03-20T15:30:49.626Z,0.65
2023-03-20T15:33:20.410Z,0.57
2023-03-20T15:35:48.095Z,0.30
2023-03-20T15:38:17.252Z,0.30
2023-03-20T15:40:51.145Z,0.68
2023-03-20T15:43:27.019Z,0.10
2023-03-20T15:46:16.268Z,0.10
2023-03-20T15:48:51.258Z,0.20
2023-03-20T15:51:21.745Z,0.10
2023-03-20T15:53:49.278Z,0.40
2023-03-20T15:56:19.605Z,0.40
2023-03-20T15:58:50.592Z,0.47
2023-03-20T16:01:20.402Z,1.10
2023-03-20T16:03:48.438Z,0.32
2023-03-20T16:06:21.026Z,0.30
2023-03-20T16:09:01.392Z,0.20
2023-03-20T16:11:43.864Z,0.50
2023-03-20T16:14:16.824Z,0.20
2023-03-20T16:16:47.120Z,0.50
2023-03-20T16:19:15.160Z,0.20
2023-03-20T16:21:48.910Z,0.25
2023-03-20T16:24:20.053Z,0.40
2023-03-20T16:26:50.911Z,0.35
2023-03-20T16:29:19.647Z,0.35
2023-03-20T16:31:58.233Z,0.75
2023-03-20T16:34:38.395Z,0.30
2023-03-20T16:37:28.118Z,0.40
2023-03-20T16:40:28.793Z,0.63
2023-03-20T16:42:57.255Z,0.35
2023-03-20T16:45:36.995Z,0.20
2023-03-20T16:48:10.096Z,0.40
2023-03-20T16:50:48.543Z,0.57
2023-03-20T16:53:19.492Z,0.10
2023-03-20T16:55:52.090Z,0.75
2023-03-20T16:58:29.562Z,0.90
2023-03-20T17:01:06.152Z,0.45
2023-03-20T17:03:46.234Z,0.10
2023-03-20T17:06:19.658Z,0.20
2023-03-20T17:08:51.446Z,0.22
2023-03-20T17:11:31.326Z,0.40
2023-03-20T17:13:58.628Z,6.82
2023-03-20T17:16:28.695Z,0.40
2023-03-20T17:19:21.215Z,0.30
2023-03-20T17:21:48.440Z,0.20
2023-03-20T17:24:16.952Z,0.20
2023-03-20T17:26:55.217Z,0.20
2023-03-20T17:29:22.562Z,1.65
2023-03-20T17:31:50.056Z,1.48
2023-03-20T17:34:17.092Z,0.47
2023-03-20T17:36:43.768Z,0.38
2023-03-20T17:39:18.900Z,1.60
2023-03-20T17:41:46.409Z,0.60
2023-03-20T17:44:13.043Z,0.40
2023-03-20T17:46:56.275Z,0.82
2023-03-20T17:49:27.258Z,0.40
2023-03-20T17:51:54.709Z,0.40
2023-03-20T17:54:21.595Z,0.55
2023-03-20T17:56:48.325Z,0.68
2023-03-20T17:59:15.368Z,0.70
2023-03-20T18:01:42.423Z,1.05
2023-03-20T18:04:09.608Z,0.95
2023-03-20T18:06:37.076Z,0.47
2023-03-20T18:09:05.093Z,0.80
2023-03-20T18:11:32.114Z,1.10
2023-03-20T18:13:59.905Z,0.98
2023-03-20T18:16:27.389Z,1.00
2023-03-20T18:18:54.494Z,1.08
2023-03-20T18:21:21.498Z,0.68
2023-03-20T18:23:48.441Z,1.05
2023-03-20T18:26:21.409Z,0.82
2023-03-20T18:28:49.454Z,0.70
2023-03-20T18:31:18.995Z,1.27
2023-03-20T18:36:22.122Z,0.80
2023-03-20T18:38:50.770Z,1.20
2023-03-20T18:41:17.503Z,1.20
2023-03-20T18:43:46.586Z,1.30
2023-03-20T18:46:22.115Z,1.42
2023-03-20T18:48:51.904Z,0.50
2023-03-20T18:51:20.363Z,0.82
2023-03-20T18:53:47.619Z,0.70
2023-03-20T18:56:19.230Z,0.57
2023-03-20T18:58:46.960Z,2.05
2023-03-20T19:01:15.645Z,0.80
2023-03-20T19:03:44.135Z,0.70
2023-03-20T19:06:18.751Z,0.43
2023-03-20T19:08:46.663Z,1.08
2023-03-20T19:11:19.596Z,0.95
2023-03-20T19:13:51.168Z,0.52
2023-03-20T19:16:27.077Z,0.50
2023-03-20T19:18:55.977Z,0.60
2023-03-20T19:21:29.179Z,0.50
2023-03-20T19:23:58.217Z,0.20
2023-03-20T19:26:28.051Z,0.68
2023-03-20T19:28:57.192Z,0.63
2023-03-20T19:31:25.517Z,1.45
2023-03-20T19:33:52.977Z,0.80
2023-03-20T19:36:27.888Z,1.20
2023-03-20T19:38:56.015Z,0.85
2023-03-20T19:41:23.534Z,0.98
2023-03-20T19:43:53.595Z,1.52
2023-03-20T19:46:43.003Z,1.10
2023-03-20T19:49:18.562Z,2.25
2023-03-20T19:51:48.103Z,2.40
2023-03-20T19:54:15.282Z,1.10
2023-03-20T19:56:42.431Z,1.10
2023-03-20T19:59:09.430Z,0.88
2023-03-20T20:01:36.553Z,1.27
2023-03-20T20:04:04.583Z,1.30
2023-03-20T20:06:33.010Z,2.58
2023-03-20T20:09:01.567Z,1.40
2023-03-20T20:11:29.088Z,1.35
2023-03-20T20:14:07.693Z,2.17
2023-03-20T20:16:36.806Z,0.90
2023-03-20T20:19:04.086Z,1.63
2023-03-20T20:24:18.018Z,2.33
2023-03-20T20:26:54.428Z,1.55
2023-03-20T20:29:26.867Z,4.10
2023-03-20T20:31:53.984Z,4.60
2023-03-20T20:39:54.802Z,1.88
2023-03-20T20:42:22.922Z,2.40
2023-03-20T20:44:50.159Z,5.90
2023-03-20T20:47:17.624Z,5.25
2023-03-20T20:49:47.420Z,5.38
2023-03-20T20:54:42.352Z,4.40
2023-03-20T20:57:11.433Z,2.03
2023-03-20T20:59:40.285Z,1.95
2023-03-20T21:02:11.534Z,2.27
2023-03-20T21:04:43.011Z,2.88
2023-03-20T21:07:12.293Z,2.38
2023-03-20T21:09:40.427Z,1.83
2023-03-20T21:12:09.923Z,1.23
2023-03-20T21:14:36.917Z,1.42
2023-03-20T21:17:08.265Z,2.00
2023-03-20T21:19:37.461Z,2.20
2023-03-20T21:22:05.570Z,2.08
2023-03-20T21:24:34.670Z,2.08
2023-03-20T21:27:08.079Z,2.00
2023-03-20T21:29:34.981Z,1.73
2023-03-20T21:32:01.794Z,1.73
2023-03-20T21:34:29.150Z,2.13
2023-03-20T21:36:57.860Z,2.95
2023-03-20T21:39:27.605Z,1.75
2023-03-20T21:41:54.329Z,1.73
2023-03-20T21:44:56.080Z,1.40
2023-03-20T21:50:45.949Z,1.60
2023-03-20T21:53:24.060Z,1.50
2023-03-20T21:56:31.079Z,1.45
2023-03-20T22:01:57.437Z,2.60
2023-03-20T22:04:54.776Z,1.85
2023-03-20T22:07:36.042Z,1.73
2023-03-20T22:10:11.145Z,1.95
2023-03-20T22:15:46.301Z,2.47
2023-03-20T22:21:22.471Z,1.88
2023-03-20T22:24:14.583Z,1.33
2023-03-20T22:41:29.630Z,38.15
2023-03-20T22:46:43.874Z,10.63
2023-03-20T22:49:03.512Z,8.07
2023-03-20T22:51:36.954Z,7.85
2023-03-20T22:54:12.039Z,9.48
2023-03-20T22:56:38.902Z,6.40
2023-03-20T22:59:06.735Z,24.27
2023-03-20T23:01:36.072Z,6.18
2023-03-20T23:04:02.931Z,2.70
2023-03-20T23:06:29.816Z,2.60
2023-03-20T23:08:59.671Z,2.35
2023-03-20T23:11:29.977Z,2.83
2023-03-20T23:13:57.290Z,3.20
2023-03-20T23:16:27.176Z,2.97
2023-03-20T23:18:55.566Z,2.90
2023-03-20T23:21:43.412Z,2.90
2023-03-20T23:24:15.582Z,1.90
2023-03-20T23:26:44.068Z,2.20
2023-03-20T23:29:11.614Z,1.48
2023-03-20T23:31:38.785Z,1.52
2023-03-20T23:34:05.676Z,1.30
2023-03-20T23:36:37.019Z,1.50
2023-03-20T23:39:18.759Z,1.27
2023-03-20T23:42:20.257Z,1.33
2023-03-20T23:45:20.865Z,2.10
2023-03-20T23:48:06.009Z,1.40
2023-03-20T23:50:46.089Z,1.25
2023-03-20T23:53:44.639Z,1.05
2023-03-20T23:56:20.163Z,1.42
2023-03-20T23:58:58.310Z,1.90
